Time;durP1;ratioP1;P1;durP2;ratioP2;P2;SDS_P1;SDS_P2;PMS_P1;PMS_P2;Temp;Humidity;BMP_temperature;BMP_pressure;BME280_temperature;BME280_humidity;BME280_pressure;Samples;Min_cycle;Max_cycle;Signal;HPM_P1;HPM_P2
2021/12/11 00:01:05;;;;;;;3.40;1.70;;;;;;;;;;5031953;28;20090;-75
2021/12/11 00:03:34;;;;;;;2.90;1.73;;;;;;;;;;5031627;28;20024;-75
2021/12/11 00:06:27;;;;;;;1.60;1.48;;;;;;;;;;5033006;28;20021;-75
2021/12/11 00:08:54;;;;;;;2.53;1.60;;;;;;;;;;5031725;28;20046;-75
2021/12/11 00:11:31;;;;;;;2.00;1.58;;;;;;;;;;5031342;28;20033;-76
2021/12/11 00:13:58;;;;;;;2.53;1.58;;;;;;;;;;5031319;28;20029;-74
2021/12/11 00:16:24;;;;;;;1.50;1.40;;;;;;;;;;5032554;28;20025;-76
2021/12/11 00:18:54;;;;;;;4.00;2.10;;;;;;;;;;5031364;28;20021;-76
2021/12/11 00:21:20;;;;;;;2.58;1.75;;;;;;;;;;5033145;28;20119;-75
2021/12/11 00:24:05;;;;;;;2.47;1.40;;;;;;;;;;5031116;28;20021;-75
2021/12/11 00:26:34;;;;;;;2.17;1.60;;;;;;;;;;5030638;28;20025;-74
2021/12/11 00:28:59;;;;;;;1.63;1.40;;;;;;;;;;5031165;28;20120;-74
2021/12/11 00:31:26;;;;;;;1.92;1.63;;;;;;;;;;5031508;28;20121;-75
2021/12/11 00:33:52;;;;;;;1.50;1.40;;;;;;;;;;5032234;28;20018;-75
2021/12/11 00:36:20;;;;;;;1.30;1.30;;;;;;;;;;5047701;28;20104;-74
2021/12/11 00:38:48;;;;;;;3.53;1.55;;;;;;;;;;5030943;28;20104;-74
2021/12/11 00:41:14;;;;;;;2.60;1.55;;;;;;;;;;5031018;28;20021;-74
2021/12/11 00:43:40;;;;;;;1.83;1.65;;;;;;;;;;5032006;28;20419;-74
2021/12/11 00:46:09;;;;;;;1.50;1.40;;;;;;;;;;5032085;28;20052;-74
2021/12/11 00:48:35;;;;;;;2.08;1.55;;;;;;;;;;5030819;28;20365;-73
2021/12/11 00:51:07;;;;;;;2.60;1.33;;;;;;;;;;5030875;28;20108;-74
2021/12/11 00:53:37;;;;;;;1.50;1.40;;;;;;;;;;5031965;28;20094;-73
2021/12/11 00:56:13;;;;;;;1.40;1.30;;;;;;;;;;5030987;28;20060;-74
2021/12/11 00:58:39;;;;;;;1.40;1.30;;;;;;;;;;5030702;28;20029;-73
2021/12/11 01:01:09;;;;;;;2.80;1.50;;;;;;;;;;5031007;28;20037;-73
2021/12/11 01:03:40;;;;;;;1.95;1.33;;;;;;;;;;5031751;28;20483;-73
2021/12/11 01:06:09;;;;;;;1.60;1.30;;;;;;;;;;5030498;28;20057;-73
2021/12/11 01:08:39;;;;;;;1.35;1.25;;;;;;;;;;5030491;28;20538;-74
2021/12/11 01:11:20;;;;;;;1.63;1.52;;;;;;;;;;5014451;28;20488;-75
2021/12/11 01:13:53;;;;;;;1.88;1.33;;;;;;;;;;5031559;28;20021;-74
2021/12/11 01:16:20;;;;;;;1.33;1.10;;;;;;;;;;5031840;28;20032;-72
2021/12/11 01:18:48;;;;;;;1.30;1.20;;;;;;;;;;5030464;28;20036;-73
2021/12/11 01:26:48;;;;;;;1.10;1.10;;;;;;;;;;5015019;28;20034;-74
2021/12/11 01:29:14;;;;;;;3.70;1.20;;;;;;;;;;5031585;28;20025;-73
2021/12/11 01:31:40;;;;;;;1.50;1.40;;;;;;;;;;5030898;28;20041;-72
2021/12/11 01:34:05;;;;;;;1.35;1.25;;;;;;;;;;5031475;28;20369;-73
2021/12/11 01:36:31;;;;;;;1.45;1.35;;;;;;;;;;5031581;28;20072;-73
2021/12/11 01:38:58;;;;;;;1.95;1.30;;;;;;;;;;5034629;28;20108;-73
2021/12/11 01:41:24;;;;;;;1.23;1.23;;;;;;;;;;5034333;28;20063;-73
2021/12/11 01:43:51;;;;;;;1.80;1.70;;;;;;;;;;5035688;28;20053;-73
2021/12/11 01:46:19;;;;;;;2.65;1.60;;;;;;;;;;5022519;28;20113;-73
2021/12/11 01:48:47;;;;;;;1.45;1.15;;;;;;;;;;5014337;28;20030;-72
2021/12/11 01:51:23;;;;;;;1.50;1.40;;;;;;;;;;5030961;28;20029;-73
2021/12/11 01:53:56;;;;;;;1.48;1.33;;;;;;;;;;5014657;28;20105;-74
2021/12/11 01:56:23;;;;;;;3.88;1.42;;;;;;;;;;5014801;28;20018;-73
2021/12/11 01:59:05;;;;;;;2.00;1.42;;;;;;;;;;5014247;28;20026;-73
2021/12/11 02:01:36;;;;;;;3.13;1.25;;;;;;;;;;5013435;28;20048;-73
2021/12/11 02:04:04;;;;;;;1.30;1.20;;;;;;;;;;5013804;28;20018;-73
2021/12/11 02:06:35;;;;;;;1.95;1.23;;;;;;;;;;5013284;28;20100;-73
2021/12/11 02:09:27;;;;;;;1.40;1.35;;;;;;;;;;5014012;28;20120;-72
2021/12/11 02:12:15;;;;;;;1.60;1.50;;;;;;;;;;5014912;28;20042;-73
2021/12/11 02:14:45;;;;;;;3.85;1.60;;;;;;;;;;5014802;28;20021;-73
2021/12/11 02:17:44;;;;;;;2.42;1.65;;;;;;;;;;5013428;28;20025;-72
2021/12/11 02:20:13;;;;;;;1.25;1.23;;;;;;;;;;5015009;28;20523;-73
2021/12/11 02:22:42;;;;;;;2.08;1.80;;;;;;;;;;5014705;28;20021;-72
2021/12/11 02:25:14;;;;;;;3.38;2.00;;;;;;;;;;5013366;28;20028;-73
2021/12/11 02:27:46;;;;;;;2.67;1.67;;;;;;;;;;5014381;28;20029;-73
2021/12/11 02:30:37;;;;;;;3.33;1.75;;;;;;;;;;5012599;28;20112;-73
2021/12/11 02:33:14;;;;;;;4.53;1.80;;;;;;;;;;5030000;28;20144;-73
2021/12/11 02:35:42;;;;;;;3.60;1.70;;;;;;;;;;5014455;28;20033;-73
2021/12/11 02:38:21;;;;;;;3.58;1.77;;;;;;;;;;5013726;28;20030;-73
2021/12/11 02:40:46;;;;;;;2.38;1.95;;;;;;;;;;5014490;28;20472;-73
2021/12/11 02:43:20;;;;;;;2.95;2.05;;;;;;;;;;5014663;28;20041;-71
2021/12/11 02:46:07;;;;;;;2.97;1.90;;;;;;;;;;5013005;28;20029;-72
2021/12/11 02:48:38;;;;;;;4.93;2.40;;;;;;;;;;5013769;28;20026;-74
2021/12/11 02:51:08;;;;;;;5.32;2.10;;;;;;;;;;5014422;28;20504;-73
2021/12/11 02:53:47;;;;;;;2.25;1.83;;;;;;;;;;5014398;28;20037;-73
2021/12/11 02:56:42;;;;;;;3.83;1.80;;;;;;;;;;5012863;28;20029;-73
2021/12/11 02:59:13;;;;;;;2.00;1.77;;;;;;;;;;5013601;28;20041;-73
2021/12/11 03:01:42;;;;;;;2.25;1.48;;;;;;;;;;5013573;28;20034;-74
2021/12/11 03:04:17;;;;;;;3.17;2.08;;;;;;;;;;5014049;28;20017;-74
2021/12/11 03:06:46;;;;;;;4.28;1.67;;;;;;;;;;5012437;28;20435;-73
2021/12/11 03:09:13;;;;;;;3.92;1.73;;;;;;;;;;5014016;28;20117;-74
2021/12/11 03:11:38;;;;;;;3.47;1.60;;;;;;;;;;5014076;28;20370;-73
2021/12/11 03:14:04;;;;;;;2.78;1.58;;;;;;;;;;5014112;28;20036;-74
2021/12/11 03:16:31;;;;;;;4.05;1.92;;;;;;;;;;5013524;28;20018;-73
2021/12/11 03:18:58;;;;;;;3.42;1.50;;;;;;;;;;5013542;28;20031;-72
2021/12/11 03:21:24;;;;;;;5.70;1.67;;;;;;;;;;5012573;28;20040;-73
2021/12/11 03:23:49;;;;;;;1.58;1.40;;;;;;;;;;5012360;28;20026;-74
2021/12/11 03:26:14;;;;;;;4.43;1.70;;;;;;;;;;5012116;28;20022;-74
2021/12/11 03:28:40;;;;;;;1.55;1.45;;;;;;;;;;5013285;28;20048;-74
2021/12/11 03:31:06;;;;;;;4.15;1.63;;;;;;;;;;5028117;28;20056;-73
2021/12/11 03:33:35;;;;;;;3.00;1.30;;;;;;;;;;5012462;28;20026;-73
2021/12/11 03:36:02;;;;;;;1.95;1.50;;;;;;;;;;5012322;28;20033;-74
2021/12/11 03:38:27;;;;;;;2.40;1.50;;;;;;;;;;5011304;28;20047;-72
2021/12/11 03:40:52;;;;;;;1.50;1.27;;;;;;;;;;5012222;28;20544;-75
2021/12/11 03:43:19;;;;;;;1.52;1.42;;;;;;;;;;5013466;28;20080;-75
2021/12/11 03:45:46;;;;;;;1.70;1.45;;;;;;;;;;5012095;28;20033;-73
2021/12/11 03:48:14;;;;;;;2.20;1.50;;;;;;;;;;5013006;28;20029;-74
2021/12/11 03:50:39;;;;;;;1.63;1.52;;;;;;;;;;5011809;28;20026;-74
2021/12/11 03:53:05;;;;;;;5.00;2.05;;;;;;;;;;5011892;28;20026;-73
2021/12/11 03:55:34;;;;;;;2.33;1.50;;;;;;;;;;5012109;28;20109;-72
2021/12/11 03:58:01;;;;;;;2.05;1.63;;;;;;;;;;5012004;28;20030;-74
2021/12/11 04:00:32;;;;;;;2.75;1.77;;;;;;;;;;5011013;28;20496;-74
2021/12/11 04:03:03;;;;;;;1.67;1.40;;;;;;;;;;5028302;28;20080;-74
2021/12/11 04:05:29;;;;;;;2.25;1.90;;;;;;;;;;5013140;28;20030;-74
2021/12/11 04:07:56;;;;;;;1.60;1.50;;;;;;;;;;5011204;28;20026;-73
2021/12/11 04:10:21;;;;;;;2.78;1.52;;;;;;;;;;5012519;28;20443;-73
2021/12/11 04:12:48;;;;;;;2.25;1.40;;;;;;;;;;5012787;28;20041;-73
2021/12/11 04:15:13;;;;;;;4.60;1.80;;;;;;;;;;5012870;28;20396;-73
2021/12/11 04:17:39;;;;;;;2.83;1.70;;;;;;;;;;5012564;28;20025;-73
2021/12/11 04:20:08;;;;;;;1.85;1.35;;;;;;;;;;5011111;28;20026;-72
2021/12/11 04:22:33;;;;;;;1.30;1.25;;;;;;;;;;5027762;28;20463;-73
2021/12/11 04:24:59;;;;;;;3.00;1.45;;;;;;;;;;5012743;28;20117;-73
2021/12/11 04:27:24;;;;;;;1.50;1.40;;;;;;;;;;5012678;28;20048;-73
2021/12/11 04:29:51;;;;;;;1.58;1.48;;;;;;;;;;5010672;28;20409;-73
2021/12/11 04:32:17;;;;;;;1.52;1.42;;;;;;;;;;5011999;28;20030;-72
2021/12/11 04:34:42;;;;;;;1.40;1.30;;;;;;;;;;5012673;28;20033;-73
2021/12/11 04:37:12;;;;;;;2.10;1.40;;;;;;;;;;5012800;28;20105;-73
2021/12/11 04:39:40;;;;;;;3.80;1.42;;;;;;;;;;5012340;28;20029;-74
2021/12/11 04:42:17;;;;;;;1.55;1.40;;;;;;;;;;5011920;28;20054;-71
2021/12/11 04:44:45;;;;;;;1.23;1.13;;;;;;;;;;5011404;28;20028;-72
2021/12/11 04:47:27;;;;;;;1.80;1.50;;;;;;;;;;5011196;28;20548;-73
2021/12/11 04:49:58;;;;;;;2.13;1.35;;;;;;;;;;5012155;28;20040;-74
2021/12/11 04:52:52;;;;;;;2.47;1.40;;;;;;;;;;5011781;28;20076;-73
2021/12/11 04:55:34;;;;;;;1.70;1.30;;;;;;;;;;5011477;28;20492;-74
2021/12/11 04:58:13;;;;;;;3.35;1.40;;;;;;;;;;5011284;28;20033;-73
2021/12/11 05:00:55;;;;;;;4.72;1.40;;;;;;;;;;5010884;28;20030;-73
2021/12/11 05:11:16;;;;;;;1.05;1.02;;;;;;;;;;5011551;28;20045;-73
2021/12/11 05:13:42;;;;;;;1.40;1.27;;;;;;;;;;5010818;28;20040;-72
2021/12/11 05:16:10;;;;;;;1.38;1.30;;;;;;;;;;4994368;28;20025;-72
2021/12/11 05:18:36;;;;;;;1.40;1.30;;;;;;;;;;5012079;28;20022;-74
2021/12/11 05:21:09;;;;;;;1.70;1.33;;;;;;;;;;5027020;28;20022;-73
2021/12/11 05:23:35;;;;;;;1.63;1.30;;;;;;;;;;5009994;28;20049;-74
2021/12/11 05:26:00;;;;;;;2.38;1.30;;;;;;;;;;5011946;28;20302;-73
2021/12/11 05:28:25;;;;;;;1.85;1.20;;;;;;;;;;5011865;28;20079;-73
2021/12/11 05:30:52;;;;;;;1.63;1.40;;;;;;;;;;5010993;28;20033;-73
2021/12/11 05:33:17;;;;;;;1.05;1.02;;;;;;;;;;5011501;28;20025;-72
2021/12/11 05:35:42;;;;;;;1.25;1.20;;;;;;;;;;5011847;28;20408;-72
2021/12/11 05:38:10;;;;;;;3.83;1.58;;;;;;;;;;5010463;28;20022;-72
2021/12/11 05:40:37;;;;;;;2.78;1.23;;;;;;;;;;5011531;28;20112;-72
2021/12/11 05:43:03;;;;;;;1.60;1.30;;;;;;;;;;5011180;28;20037;-73
2021/12/11 05:45:28;;;;;;;1.85;1.20;;;;;;;;;;5012093;28;20030;-73
2021/12/11 05:47:53;;;;;;;1.83;1.42;;;;;;;;;;5011728;28;20018;-72
2021/12/11 05:50:40;;;;;;;2.17;1.20;;;;;;;;;;5011440;28;20026;-72
2021/12/11 05:53:05;;;;;;;3.72;1.45;;;;;;;;;;5011302;28;20026;-75
2021/12/11 05:55:31;;;;;;;3.55;1.42;;;;;;;;;;5010181;28;20461;-74
2021/12/11 05:57:58;;;;;;;1.50;1.40;;;;;;;;;;5010584;28;20574;-74
2021/12/11 06:00:29;;;;;;;1.50;1.40;;;;;;;;;;5025530;28;20133;-73
2021/12/11 06:02:54;;;;;;;2.10;1.45;;;;;;;;;;5009869;28;20018;-72
2021/12/11 06:05:19;;;;;;;1.60;1.40;;;;;;;;;;5011744;28;20385;-73
2021/12/11 06:07:45;;;;;;;1.48;1.38;;;;;;;;;;5011517;28;20083;-73
2021/12/11 06:10:13;;;;;;;4.43;1.58;;;;;;;;;;5011249;28;20374;-73
2021/12/11 06:12:39;;;;;;;1.52;1.30;;;;;;;;;;5009980;28;20435;-72
2021/12/11 06:15:05;;;;;;;2.53;1.30;;;;;;;;;;5011000;28;20033;-73
2021/12/11 06:17:31;;;;;;;1.95;1.20;;;;;;;;;;5026571;28;20112;-73
2021/12/11 06:19:57;;;;;;;3.83;1.20;;;;;;;;;;5011497;28;20071;-73
2021/12/11 06:22:25;;;;;;;1.98;1.60;;;;;;;;;;5011126;28;20026;-73
2021/12/11 06:24:51;;;;;;;1.50;1.40;;;;;;;;;;5013354;28;20022;-73
2021/12/11 06:27:16;;;;;;;1.40;1.30;;;;;;;;;;5014957;28;20045;-73
2021/12/11 06:29:41;;;;;;;1.20;1.20;;;;;;;;;;5013631;28;20057;-73
2021/12/11 06:32:07;;;;;;;1.92;1.38;;;;;;;;;;5012450;28;20114;-73
2021/12/11 06:34:34;;;;;;;1.70;1.50;;;;;;;;;;5015043;28;20029;-73
2021/12/11 06:37:00;;;;;;;2.15;1.40;;;;;;;;;;5010447;28;20029;-73
2021/12/11 06:39:25;;;;;;;1.00;1.00;;;;;;;;;;5010607;28;20461;-73
2021/12/11 06:41:53;;;;;;;1.27;1.20;;;;;;;;;;5010148;28;20488;-73
2021/12/11 06:44:19;;;;;;;1.85;1.50;;;;;;;;;;4993751;28;20037;-72
2021/12/11 06:46:45;;;;;;;1.60;1.50;;;;;;;;;;4995221;28;20019;-74
2021/12/11 06:49:10;;;;;;;1.33;1.23;;;;;;;;;;4993827;28;20034;-73
2021/12/11 06:51:36;;;;;;;1.38;1.30;;;;;;;;;;4994803;28;20033;-72
2021/12/11 06:54:04;;;;;;;2.22;1.50;;;;;;;;;;4994741;28;20465;-73
2021/12/11 06:56:30;;;;;;;1.85;1.40;;;;;;;;;;5009608;28;20019;-73
2021/12/11 06:58:55;;;;;;;1.55;1.40;;;;;;;;;;4994931;28;20085;-74
2021/12/11 07:01:22;;;;;;;1.90;1.50;;;;;;;;;;5012034;28;20064;-73
2021/12/11 07:03:47;;;;;;;1.60;1.42;;;;;;;;;;5029126;28;20386;-74
2021/12/11 07:06:12;;;;;;;3.35;1.50;;;;;;;;;;5012190;28;20048;-73
2021/12/11 07:08:39;;;;;;;1.60;1.50;;;;;;;;;;5012859;28;20057;-74
2021/12/11 07:11:05;;;;;;;4.57;1.70;;;;;;;;;;5013757;28;20091;-73
2021/12/11 07:13:30;;;;;;;2.15;1.42;;;;;;;;;;5012310;28;20057;-73
2021/12/11 07:15:56;;;;;;;1.77;1.67;;;;;;;;;;5013040;28;20029;-74
2021/12/11 07:18:23;;;;;;;3.55;1.67;;;;;;;;;;5012821;28;20030;-73
2021/12/11 07:20:48;;;;;;;3.03;1.63;;;;;;;;;;5013798;28;20034;-73
2021/12/11 07:23:13;;;;;;;2.08;1.58;;;;;;;;;;5012143;28;20030;-73
2021/12/11 07:25:46;;;;;;;1.85;1.75;;;;;;;;;;5011703;28;20026;-74
2021/12/11 07:28:12;;;;;;;3.35;1.40;;;;;;;;;;5012922;28;20167;-72
2021/12/11 07:30:38;;;;;;;3.30;1.67;;;;;;;;;;5010940;28;20033;-72
2021/12/11 07:33:04;;;;;;;2.10;1.80;;;;;;;;;;5012690;28;20381;-74
2021/12/11 07:35:31;;;;;;;3.53;1.85;;;;;;;;;;5018953;28;20029;-72
2021/12/11 07:37:57;;;;;;;1.75;1.65;;;;;;;;;;5028158;28;20025;-75
2021/12/11 07:40:24;;;;;;;3.53;2.00;;;;;;;;;;5013085;28;20018;-74
2021/12/11 07:42:50;;;;;;;3.08;1.65;;;;;;;;;;5012079;28;20065;-73
2021/12/11 07:45:15;;;;;;;1.77;1.67;;;;;;;;;;5012941;28;20049;-72
2021/12/11 07:47:40;;;;;;;4.25;1.80;;;;;;;;;;5008865;28;20477;-74
2021/12/11 07:50:06;;;;;;;2.70;1.80;;;;;;;;;;5026103;28;20121;-74
2021/12/11 07:52:31;;;;;;;3.47;1.92;;;;;;;;;;5013321;28;20056;-73
2021/12/11 07:54:57;;;;;;;2.13;1.63;;;;;;;;;;5027667;28;20040;-74
2021/12/11 07:57:22;;;;;;;1.75;1.65;;;;;;;;;;5015795;28;20024;-74
2021/12/11 07:59:47;;;;;;;1.90;1.65;;;;;;;;;;5025661;28;20060;-74
2021/12/11 08:02:13;;;;;;;2.58;1.80;;;;;;;;;;4994438;28;20112;-73
2021/12/11 08:04:38;;;;;;;3.13;2.20;;;;;;;;;;5012678;28;20049;-73
2021/12/11 08:07:03;;;;;;;2.65;1.90;;;;;;;;;;5012292;28;20421;-74
2021/12/11 08:09:29;;;;;;;2.38;2.03;;;;;;;;;;5013080;28;20506;-74
2021/12/11 08:11:54;;;;;;;1.60;1.50;;;;;;;;;;5011414;28;20029;-73
2021/12/11 08:14:21;;;;;;;1.80;1.70;;;;;;;;;;5011206;28;20052;-74
2021/12/11 08:16:48;;;;;;;2.38;2.05;;;;;;;;;;5027774;28;20026;-73
2021/12/11 08:19:23;;;;;;;2.83;1.92;;;;;;;;;;5015314;28;20038;-74
2021/12/11 08:21:50;;;;;;;2.47;1.85;;;;;;;;;;5010761;28;20084;-75
2021/12/11 08:24:16;;;;;;;3.20;2.03;;;;;;;;;;5010975;28;20136;-73
2021/12/11 08:26:42;;;;;;;1.70;1.60;;;;;;;;;;5014677;28;20109;-74
2021/12/11 08:29:11;;;;;;;1.70;1.60;;;;;;;;;;5012094;28;20136;-74
2021/12/11 08:31:38;;;;;;;1.98;1.55;;;;;;;;;;5010276;28;20034;-73
2021/12/11 08:34:03;;;;;;;1.83;1.73;;;;;;;;;;5011277;28;20109;-73
2021/12/11 08:36:28;;;;;;;3.47;1.92;;;;;;;;;;5027354;28;20022;-74
2021/12/11 08:38:54;;;;;;;1.80;1.70;;;;;;;;;;5013299;28;20014;-74
2021/12/11 08:41:22;;;;;;;1.70;1.60;;;;;;;;;;5006701;28;20469;-74
2021/12/11 08:43:56;;;;;;;2.47;2.00;;;;;;;;;;5015131;28;20056;-73
2021/12/11 08:46:27;;;;;;;1.92;1.70;;;;;;;;;;5009137;28;20090;-74
2021/12/11 08:48:54;;;;;;;1.77;1.67;;;;;;;;;;5011841;28;20064;-74
2021/12/11 08:51:26;;;;;;;3.92;1.80;;;;;;;;;;5011202;28;20029;-73
2021/12/11 08:53:51;;;;;;;2.15;1.63;;;;;;;;;;5011039;28;20045;-73
2021/12/11 08:56:16;;;;;;;1.90;1.80;;;;;;;;;;5011563;28;20029;-71
2021/12/11 08:58:42;;;;;;;3.65;1.83;;;;;;;;;;5009856;28;20021;-75
2021/12/11 09:01:24;;;;;;;4.45;1.88;;;;;;;;;;5007130;28;20408;-75
2021/12/11 09:03:59;;;;;;;3.70;1.92;;;;;;;;;;5004282;28;20496;-73
2021/12/11 09:06:36;;;;;;;2.10;1.90;;;;;;;;;;5004649;28;20026;-75
2021/12/11 09:09:04;;;;;;;2.08;1.83;;;;;;;;;;5014091;28;20025;-74
2021/12/11 09:11:36;;;;;;;3.28;2.13;;;;;;;;;;5010414;28;20473;-75
2021/12/11 09:14:09;;;;;;;2.00;1.90;;;;;;;;;;5010452;28;20021;-74
2021/12/11 09:16:34;;;;;;;2.30;2.05;;;;;;;;;;5005390;28;20033;-73
2021/12/11 09:19:13;;;;;;;1.90;1.80;;;;;;;;;;5009193;28;20040;-75
2021/12/11 09:21:48;;;;;;;2.20;2.00;;;;;;;;;;5020192;28;20033;-74
2021/12/11 09:24:26;;;;;;;1.88;1.77;;;;;;;;;;5013409;28;20026;-74
2021/12/11 09:26:56;;;;;;;1.80;1.70;;;;;;;;;;5010234;28;20032;-74
2021/12/11 09:29:48;;;;;;;1.73;1.63;;;;;;;;;;5004735;28;20160;-73
2021/12/11 09:32:34;;;;;;;1.50;1.40;;;;;;;;;;5008155;28;20396;-74
2021/12/11 09:35:11;;;;;;;1.80;1.70;;;;;;;;;;5019547;28;20061;-73
2021/12/11 09:37:36;;;;;;;1.60;1.50;;;;;;;;;;5008326;28;20024;-75
2021/12/11 09:40:08;;;;;;;1.80;1.70;;;;;;;;;;5007411;28;20026;-73
2021/12/11 09:42:33;;;;;;;2.20;1.67;;;;;;;;;;5005423;28;20034;-74
2021/12/11 09:45:05;;;;;;;1.50;1.50;;;;;;;;;;5008329;28;20088;-74
2021/12/11 09:47:36;;;;;;;4.80;1.90;;;;;;;;;;5003108;28;20022;-74
2021/12/11 09:50:08;;;;;;;1.90;1.80;;;;;;;;;;5011145;28;20129;-74
2021/12/11 09:52:34;;;;;;;2.17;1.98;;;;;;;;;;5008210;28;20081;-74
2021/12/11 09:55:15;;;;;;;1.92;1.75;;;;;;;;;;5026709;28;20022;-74
2021/12/11 09:57:42;;;;;;;1.75;1.60;;;;;;;;;;5002873;28;20014;-74
2021/12/11 10:00:11;;;;;;;1.73;1.63;;;;;;;;;;5006924;28;20376;-74
2021/12/11 10:02:36;;;;;;;1.80;1.70;;;;;;;;;;5012241;28;20078;-74
2021/12/11 10:05:29;;;;;;;1.75;1.65;;;;;;;;;;5017575;28;20026;-74
2021/12/11 10:08:26;;;;;;;2.03;1.90;;;;;;;;;;5007500;28;20023;-74
2021/12/11 10:10:53;;;;;;;2.15;1.95;;;;;;;;;;5009041;28;20040;-73
2021/12/11 10:13:18;;;;;;;1.80;1.70;;;;;;;;;;5008770;28;20048;-73
2021/12/11 10:15:43;;;;;;;1.10;1.00;;;;;;;;;;5012211;28;20030;-72
2021/12/11 10:18:19;;;;;;;1.30;1.20;;;;;;;;;;5015177;28;20072;-73
2021/12/11 10:21:05;;;;;;;2.08;1.70;;;;;;;;;;5024188;28;20025;-73
2021/12/11 10:23:31;;;;;;;3.97;1.45;;;;;;;;;;5017267;28;20484;-72
2021/12/11 10:25:58;;;;;;;1.63;1.55;;;;;;;;;;5012118;28;20041;-71
2021/12/11 10:28:27;;;;;;;3.80;3.00;;;;;;;;;;5011899;28;20029;-72
2021/12/11 10:30:56;;;;;;;2.72;2.53;;;;;;;;;;5014676;28;20045;-72
2021/12/11 10:33:23;;;;;;;7.20;3.30;;;;;;;;;;5034763;28;20053;-73
2021/12/11 10:35:50;;;;;;;5.93;2.90;;;;;;;;;;5006026;28;20373;-72
2021/12/11 10:38:16;;;;;;;3.60;3.22;;;;;;;;;;5012972;28;20026;-72
2021/12/11 10:40:48;;;;;;;3.88;3.22;;;;;;;;;;5014796;28;20121;-71
2021/12/11 10:43:20;;;;;;;3.58;3.28;;;;;;;;;;5005949;28;20021;-73
2021/12/11 10:45:46;;;;;;;2.70;2.50;;;;;;;;;;5011990;28;20049;-74
2021/12/11 10:48:13;;;;;;;2.80;2.60;;;;;;;;;;5019871;28;20037;-74
2021/12/11 10:50:42;;;;;;;8.32;3.75;;;;;;;;;;5021170;28;20026;-75
2021/12/11 10:53:21;;;;;;;4.03;3.60;;;;;;;;;;5005657;28;20079;-75
2021/12/11 10:55:46;;;;;;;5.85;3.08;;;;;;;;;;5015297;28;20102;-74
2021/12/11 10:58:16;;;;;;;3.83;2.90;;;;;;;;;;5029904;28;20793;-74
2021/12/11 11:00:44;;;;;;;4.40;3.15;;;;;;;;;;5010029;28;20574;-75
2021/12/11 11:03:09;;;;;;;1.98;1.88;;;;;;;;;;5014231;28;20026;-74
2021/12/11 11:05:35;;;;;;;5.10;2.67;;;;;;;;;;5011876;28;20136;-72
2021/12/11 11:08:00;;;;;;;2.53;2.33;;;;;;;;;;5010199;28;20021;-73
2021/12/11 11:10:31;;;;;;;3.65;3.00;;;;;;;;;;5007862;28;20121;-74
2021/12/11 11:12:58;;;;;;;6.47;2.30;;;;;;;;;;5012030;28;20384;-74
2021/12/11 11:15:23;;;;;;;5.85;4.35;;;;;;;;;;5016901;28;20029;-74
2021/12/11 11:17:49;;;;;;;3.67;2.58;;;;;;;;;;5021265;28;20064;-74
2021/12/11 11:20:17;;;;;;;4.10;3.70;;;;;;;;;;5020733;28;20056;-74
2021/12/11 11:22:43;;;;;;;5.43;3.42;;;;;;;;;;5021381;28;20022;-73
2021/12/11 11:25:22;;;;;;;3.65;3.35;;;;;;;;;;5038435;28;20080;-74
2021/12/11 11:27:49;;;;;;;3.35;3.05;;;;;;;;;;5023783;28;20040;-74
2021/12/11 11:30:16;;;;;;;4.38;3.30;;;;;;;;;;5033857;28;20475;-74
2021/12/11 11:32:42;;;;;;;6.65;5.25;;;;;;;;;;5027328;28;20120;-74
2021/12/11 11:35:19;;;;;;;5.72;3.42;;;;;;;;;;5022023;28;20025;-75
2021/12/11 11:37:46;;;;;;;6.68;3.30;;;;;;;;;;5020279;28;20039;-74
2021/12/11 11:40:15;;;;;;;2.80;2.60;;;;;;;;;;5026113;28;20036;-75
2021/12/11 11:42:40;;;;;;;3.75;3.20;;;;;;;;;;5023161;28;20048;-75
2021/12/11 11:45:07;;;;;;;3.97;3.58;;;;;;;;;;5007265;28;20041;-75
2021/12/11 11:47:32;;;;;;;6.97;4.30;;;;;;;;;;5006569;28;20026;-75
2021/12/11 11:49:59;;;;;;;5.47;3.78;;;;;;;;;;5007528;28;20042;-75
2021/12/11 11:52:24;;;;;;;14.90;7.85;;;;;;;;;;5007793;28;20034;-75
2021/12/11 11:54:52;;;;;;;20.20;9.75;;;;;;;;;;5019927;28;20484;-75
2021/12/11 11:57:24;;;;;;;9.30;5.53;;;;;;;;;;5021473;28;20029;-75
2021/12/11 11:59:50;;;;;;;8.25;6.00;;;;;;;;;;5023285;28;20072;-73
2021/12/11 12:02:17;;;;;;;6.95;5.13;;;;;;;;;;5021697;28;20041;-74
2021/12/11 12:04:43;;;;;;;7.90;5.07;;;;;;;;;;5026969;28;20025;-74
2021/12/11 12:07:09;;;;;;;6.78;5.47;;;;;;;;;;5038520;28;20014;-73
2021/12/11 12:09:45;;;;;;;8.85;6.10;;;;;;;;;;5022929;28;20083;-73
2021/12/11 12:12:12;;;;;;;8.70;5.97;;;;;;;;;;5025877;28;20034;-74
2021/12/11 12:14:38;;;;;;;4.47;3.78;;;;;;;;;;5022420;28;20029;-74
2021/12/11 12:17:03;;;;;;;3.83;3.53;;;;;;;;;;5022941;28;20098;-74
2021/12/11 12:19:29;;;;;;;3.50;3.22;;;;;;;;;;5019897;28;20029;-74
2021/12/11 12:21:56;;;;;;;3.10;2.90;;;;;;;;;;5019008;28;20087;-74
2021/12/11 12:24:23;;;;;;;3.30;3.00;;;;;;;;;;5018404;28;20040;-74
2021/12/11 12:26:50;;;;;;;3.72;3.42;;;;;;;;;;5007565;28;20017;-74
2021/12/11 12:29:16;;;;;;;5.00;4.50;;;;;;;;;;5007689;28;20033;-74
2021/12/11 12:31:44;;;;;;;4.82;4.35;;;;;;;;;;5005045;28;20034;-76
2021/12/11 12:34:09;;;;;;;4.65;4.03;;;;;;;;;;5016182;28;20022;-75
2021/12/11 12:36:35;;;;;;;10.57;6.57;;;;;;;;;;5024397;28;20013;-76
2021/12/11 12:39:01;;;;;;;9.65;6.75;;;;;;;;;;5020204;28;20025;-74
2021/12/11 12:41:58;;;;;;;10.52;7.25;;;;;;;;;;5022778;28;20112;-75
2021/12/11 12:44:24;;;;;;;5.03;4.38;;;;;;;;;;5009849;28;20038;-75
2021/12/11 12:47:25;;;;;;;4.65;4.07;;;;;;;;;;5002927;28;20405;-74
2021/12/11 12:49:52;;;;;;;7.70;5.00;;;;;;;;;;4997755;28;20578;-75
2021/12/11 12:52:30;;;;;;;5.38;4.55;;;;;;;;;;5006016;28;20496;-74
2021/12/11 12:54:56;;;;;;;11.02;6.30;;;;;;;;;;5007250;28;20117;-74
2021/12/11 12:57:27;;;;;;;5.90;4.88;;;;;;;;;;5007130;28;20045;-74
2021/12/11 13:00:08;;;;;;;6.25;4.78;;;;;;;;;;5003318;28;20041;-75
2021/12/11 13:02:36;;;;;;;10.10;5.28;;;;;;;;;;5005612;28;20465;-75
2021/12/11 13:05:27;;;;;;;8.25;5.50;;;;;;;;;;5022595;28;20200;-75
2021/12/11 13:07:58;;;;;;;4.13;3.60;;;;;;;;;;5033972;28;20453;-75
2021/12/11 13:10:29;;;;;;;6.43;4.60;;;;;;;;;;5024797;28;21038;-75
2021/12/11 13:12:55;;;;;;;3.55;3.25;;;;;;;;;;5022117;28;20104;-74
2021/12/11 13:15:32;;;;;;;4.07;3.60;;;;;;;;;;5025355;28;20571;-75
2021/12/11 13:17:58;;;;;;;3.92;3.55;;;;;;;;;;5021834;28;20029;-75
2021/12/11 13:20:28;;;;;;;3.95;3.65;;;;;;;;;;5020986;28;20033;-75
2021/12/11 13:22:53;;;;;;;5.03;4.22;;;;;;;;;;5021446;28;20037;-73
2021/12/11 13:25:40;;;;;;;4.90;3.90;;;;;;;;;;5022452;28;20031;-75
2021/12/11 13:28:05;;;;;;;3.58;3.30;;;;;;;;;;5004876;28;21029;-75
2021/12/11 13:30:37;;;;;;;7.30;4.60;;;;;;;;;;5022584;28;20121;-73
2021/12/11 13:33:05;;;;;;;17.98;10.55;;;;;;;;;;5021260;28;20571;-76
2021/12/11 13:35:32;;;;;;;14.70;8.00;;;;;;;;;;5045013;28;20477;-73
2021/12/11 13:37:57;;;;;;;13.80;8.05;;;;;;;;;;5024038;28;20678;-73
2021/12/11 13:40:23;;;;;;;12.93;7.25;;;;;;;;;;5026022;28;20071;-73
2021/12/11 13:42:48;;;;;;;6.38;4.70;;;;;;;;;;5027950;28;20068;-72
2021/12/11 13:45:18;;;;;;;12.80;7.05;;;;;;;;;;5010430;28;20058;-73
2021/12/11 13:47:44;;;;;;;5.50;4.40;;;;;;;;;;5011988;28;20022;-73
2021/12/11 13:50:22;;;;;;;4.80;4.30;;;;;;;;;;5009011;28;20025;-73
2021/12/11 13:52:47;;;;;;;7.05;4.07;;;;;;;;;;5011465;28;20038;-73
2021/12/11 13:55:13;;;;;;;3.70;3.17;;;;;;;;;;5024335;28;20045;-74
2021/12/11 13:57:38;;;;;;;3.92;3.08;;;;;;;;;;5019712;28;20029;-76
2021/12/11 14:00:08;;;;;;;3.70;3.40;;;;;;;;;;5024085;28;20125;-76
2021/12/11 14:02:33;;;;;;;4.25;3.53;;;;;;;;;;5019752;28;20041;-75
2021/12/11 14:04:59;;;;;;;4.70;4.28;;;;;;;;;;5034233;28;20075;-75
2021/12/11 14:07:26;;;;;;;4.10;3.60;;;;;;;;;;5024626;28;20058;-75
2021/12/11 14:09:57;;;;;;;5.15;3.70;;;;;;;;;;5038290;28;20033;-74
2021/12/11 14:12:24;;;;;;;4.85;4.35;;;;;;;;;;5017119;28;20040;-74
2021/12/11 14:14:49;;;;;;;5.88;4.68;;;;;;;;;;5019203;28;20109;-74
2021/12/11 14:17:15;;;;;;;6.18;5.47;;;;;;;;;;5016369;28;20097;-74
2021/12/11 14:19:43;;;;;;;6.70;5.50;;;;;;;;;;5018512;28;21091;-75
2021/12/11 14:22:08;;;;;;;7.88;5.07;;;;;;;;;;5023239;28;20022;-75
2021/12/11 14:24:33;;;;;;;8.88;6.90;;;;;;;;;;5022240;28;20352;-74
2021/12/11 14:27:02;;;;;;;14.82;9.48;;;;;;;;;;5022438;28;20037;-74
2021/12/11 14:29:27;;;;;;;4.93;4.40;;;;;;;;;;5025602;28;20045;-75
2021/12/11 14:31:53;;;;;;;8.05;4.88;;;;;;;;;;5024837;28;20412;-74
2021/12/11 14:34:18;;;;;;;5.28;4.47;;;;;;;;;;5023184;28;20053;-75
2021/12/11 14:36:43;;;;;;;4.43;3.85;;;;;;;;;;5025309;28;20045;-75
2021/12/11 14:39:17;;;;;;;4.40;4.00;;;;;;;;;;5023341;28;20040;-75
2021/12/11 14:41:45;;;;;;;4.93;4.43;;;;;;;;;;5015608;28;20313;-75
2021/12/11 14:44:13;;;;;;;8.70;6.05;;;;;;;;;;5013467;28;20385;-75
2021/12/11 14:46:38;;;;;;;7.50;6.22;;;;;;;;;;5015539;28;20121;-75
2021/12/11 14:49:04;;;;;;;8.40;6.60;;;;;;;;;;5024906;28;20113;-75
2021/12/11 14:51:30;;;;;;;9.48;7.82;;;;;;;;;;5020543;28;20025;-74
2021/12/11 14:53:56;;;;;;;6.82;6.13;;;;;;;;;;5017148;28;20084;-74
2021/12/11 14:56:30;;;;;;;9.15;6.38;;;;;;;;;;5029574;28;20022;-75
2021/12/11 14:58:57;;;;;;;5.38;4.88;;;;;;;;;;5016467;28;20021;-75
2021/12/11 15:01:53;;;;;;;4.95;4.30;;;;;;;;;;5018669;28;20069;-75
2021/12/11 15:04:20;;;;;;;5.10;4.60;;;;;;;;;;5004778;28;20045;-74
2021/12/11 15:06:46;;;;;;;4.65;4.18;;;;;;;;;;5013178;28;20105;-74
2021/12/11 15:09:12;;;;;;;5.20;4.50;;;;;;;;;;5013960;28;20528;-75